sensor_id;sensor_type;location;lat;lon;timestamp;P1;durP1;ratioP1;P2;durP2;ratioP2
48945;SDS011;34999;50.940;3.998;2024-02-14T00:01:23;7.23;;;6.17;;
48945;SDS011;34999;50.940;3.998;2024-02-14T00:03:52;8.23;;;6.93;;
48945;SDS011;34999;50.940;3.998;2024-02-14T00:06:20;7.90;;;6.20;;
48945;SDS011;34999;50.940;3.998;2024-02-14T00:08:51;7.30;;;6.50;;
48945;SDS011;34999;50.940;3.998;2024-02-14T00:11:20;7.10;;;6.33;;
48945;SDS011;34999;50.940;3.998;2024-02-14T00:13:49;6.80;;;6.07;;
48945;SDS011;34999;50.940;3.998;2024-02-14T00:16:18;8.17;;;5.90;;
48945;SDS011;34999;50.940;3.998;2024-02-14T00:18:46;6.63;;;6.00;;
48945;SDS011;34999;50.940;3.998;2024-02-14T00:21:14;8.17;;;5.90;;
48945;SDS011;34999;50.940;3.998;2024-02-14T00:23:43;8.93;;;6.33;;
48945;SDS011;34999;50.940;3.998;2024-02-14T00:26:12;7.30;;;5.97;;
48945;SDS011;34999;50.940;3.998;2024-02-14T00:28:41;7.83;;;5.90;;
48945;SDS011;34999;50.940;3.998;2024-02-14T00:31:09;7.43;;;6.43;;
48945;SDS011;34999;50.940;3.998;2024-02-14T00:33:37;8.27;;;6.13;;
48945;SDS011;34999;50.940;3.998;2024-02-14T00:36:06;6.93;;;5.60;;
48945;SDS011;34999;50.940;3.998;2024-02-14T00:38:35;10.30;;;5.70;;
48945;SDS011;34999;50.940;3.998;2024-02-14T00:41:03;10.53;;;6.47;;
48945;SDS011;34999;50.940;3.998;2024-02-14T00:43:33;6.90;;;6.17;;
48945;SDS011;34999;50.940;3.998;2024-02-14T00:46:01;6.83;;;6.00;;
48945;SDS011;34999;50.940;3.998;2024-02-14T00:48:29;8.23;;;5.90;;
48945;SDS011;34999;50.940;3.998;2024-02-14T00:50:57;6.47;;;5.77;;
48945;SDS011;34999;50.940;3.998;2024-02-14T00:53:26;7.40;;;5.80;;
48945;SDS011;34999;50.940;3.998;2024-02-14T00:55:54;6.17;;;5.63;;
48945;SDS011;34999;50.940;3.998;2024-02-14T00:58:23;6.83;;;6.17;;
48945;SDS011;34999;50.940;3.998;2024-02-14T01:00:52;9.43;;;6.57;;
48945;SDS011;34999;50.940;3.998;2024-02-14T01:03:20;6.93;;;6.23;;
48945;SDS011;34999;50.940;3.998;2024-02-14T01:05:49;8.73;;;6.13;;
48945;SDS011;34999;50.940;3.998;2024-02-14T01:08:17;8.13;;;6.67;;
48945;SDS011;34999;50.940;3.998;2024-02-14T01:10:45;7.93;;;6.53;;
48945;SDS011;34999;50.940;3.998;2024-02-14T01:13:17;7.80;;;6.33;;
48945;SDS011;34999;50.940;3.998;2024-02-14T01:15:46;9.13;;;7.00;;
48945;SDS011;34999;50.940;3.998;2024-02-14T01:18:15;7.33;;;6.63;;
48945;SDS011;34999;50.940;3.998;2024-02-14T01:20:44;6.97;;;6.33;;
48945;SDS011;34999;50.940;3.998;2024-02-14T01:23:12;9.30;;;6.93;;
48945;SDS011;34999;50.940;3.998;2024-02-14T01:25:41;7.77;;;6.30;;
48945;SDS011;34999;50.940;3.998;2024-02-14T01:28:10;8.93;;;6.60;;
48945;SDS011;34999;50.940;3.998;2024-02-14T01:30:38;7.97;;;6.67;;
48945;SDS011;34999;50.940;3.998;2024-02-14T01:33:07;7.63;;;6.67;;
48945;SDS011;34999;50.940;3.998;2024-02-14T01:35:37;10.67;;;7.40;;
48945;SDS011;34999;50.940;3.998;2024-02-14T01:38:05;7.20;;;6.50;;
48945;SDS011;34999;50.940;3.998;2024-02-14T01:40:34;11.40;;;7.13;;
48945;SDS011;34999;50.940;3.998;2024-02-14T01:43:02;9.80;;;7.50;;
48945;SDS011;34999;50.940;3.998;2024-02-14T01:45:30;10.87;;;7.30;;
48945;SDS011;34999;50.940;3.998;2024-02-14T01:47:59;15.70;;;7.40;;
48945;SDS011;34999;50.940;3.998;2024-02-14T01:50:29;7.50;;;6.57;;
48945;SDS011;34999;50.940;3.998;2024-02-14T01:52:59;8.30;;;6.90;;
48945;SDS011;34999;50.940;3.998;2024-02-14T01:55:28;12.20;;;7.03;;
48945;SDS011;34999;50.940;3.998;2024-02-14T01:57:56;9.87;;;6.90;;
48945;SDS011;34999;50.940;3.998;2024-02-14T02:00:25;8.63;;;6.80;;
48945;SDS011;34999;50.940;3.998;2024-02-14T02:02:53;9.27;;;7.60;;
48945;SDS011;34999;50.940;3.998;2024-02-14T02:05:22;8.03;;;7.20;;
48945;SDS011;34999;50.940;3.998;2024-02-14T02:07:50;7.70;;;6.90;;
48945;SDS011;34999;50.940;3.998;2024-02-14T02:10:21;9.00;;;7.30;;
48945;SDS011;34999;50.940;3.998;2024-02-14T02:12:57;12.13;;;7.10;;
48945;SDS011;34999;50.940;3.998;2024-02-14T02:15:25;10.67;;;7.23;;
48945;SDS011;34999;50.940;3.998;2024-02-14T02:17:54;7.20;;;6.50;;
48945;SDS011;34999;50.940;3.998;2024-02-14T02:20:22;11.73;;;6.97;;
48945;SDS011;34999;50.940;3.998;2024-02-14T02:22:52;8.07;;;7.23;;
48945;SDS011;34999;50.940;3.998;2024-02-14T02:25:21;7.60;;;6.70;;
48945;SDS011;34999;50.940;3.998;2024-02-14T02:27:51;7.87;;;6.70;;
48945;SDS011;34999;50.940;3.998;2024-02-14T02:30:20;12.33;;;7.57;;
48945;SDS011;34999;50.940;3.998;2024-02-14T02:32:48;8.23;;;7.43;;
48945;SDS011;34999;50.940;3.998;2024-02-14T02:35:17;9.63;;;7.87;;
48945;SDS011;34999;50.940;3.998;2024-02-14T02:37:47;10.33;;;7.83;;
48945;SDS011;34999;50.940;3.998;2024-02-14T02:40:18;10.33;;;8.37;;
48945;SDS011;34999;50.940;3.998;2024-02-14T02:42:48;10.90;;;8.13;;
48945;SDS011;34999;50.940;3.998;2024-02-14T02:45:16;11.00;;;8.10;;
48945;SDS011;34999;50.940;3.998;2024-02-14T02:47:45;11.37;;;8.30;;
48945;SDS011;34999;50.940;3.998;2024-02-14T02:50:14;11.87;;;8.40;;
48945;SDS011;34999;50.940;3.998;2024-02-14T02:52:42;12.00;;;8.43;;
48945;SDS011;34999;50.940;3.998;2024-02-14T02:55:11;12.53;;;8.37;;
48945;SDS011;34999;50.940;3.998;2024-02-14T02:57:41;13.03;;;8.00;;
48945;SDS011;34999;50.940;3.998;2024-02-14T03:00:12;13.10;;;8.60;;
48945;SDS011;34999;50.940;3.998;2024-02-14T03:02:42;10.27;;;7.57;;
48945;SDS011;34999;50.940;3.998;2024-02-14T03:05:12;10.70;;;8.20;;
48945;SDS011;34999;50.940;3.998;2024-02-14T03:07:45;14.73;;;8.63;;
48945;SDS011;34999;50.940;3.998;2024-02-14T03:10:16;11.90;;;8.03;;
48945;SDS011;34999;50.940;3.998;2024-02-14T03:12:47;13.27;;;8.40;;
48945;SDS011;34999;50.940;3.998;2024-02-14T03:15:16;13.87;;;9.00;;
48945;SDS011;34999;50.940;3.998;2024-02-14T03:17:45;12.57;;;7.97;;
48945;SDS011;34999;50.940;3.998;2024-02-14T03:20:13;15.30;;;8.70;;
48945;SDS011;34999;50.940;3.998;2024-02-14T03:22:44;13.43;;;8.37;;
48945;SDS011;34999;50.940;3.998;2024-02-14T03:25:15;10.87;;;8.30;;
48945;SDS011;34999;50.940;3.998;2024-02-14T03:27:44;12.43;;;8.40;;
48945;SDS011;34999;50.940;3.998;2024-02-14T03:30:18;11.27;;;8.50;;
48945;SDS011;34999;50.940;3.998;2024-02-14T03:32:47;14.00;;;7.97;;
48945;SDS011;34999;50.940;3.998;2024-02-14T03:35:15;10.97;;;8.03;;
48945;SDS011;34999;50.940;3.998;2024-02-14T03:37:45;12.87;;;7.60;;
48945;SDS011;34999;50.940;3.998;2024-02-14T03:40:15;13.30;;;7.97;;
48945;SDS011;34999;50.940;3.998;2024-02-14T03:42:43;7.77;;;7.03;;
48945;SDS011;34999;50.940;3.998;2024-02-14T03:45:13;11.80;;;7.73;;
48945;SDS011;34999;50.940;3.998;2024-02-14T03:47:41;13.20;;;8.60;;
48945;SDS011;34999;50.940;3.998;2024-02-14T03:50:10;10.47;;;7.97;;
48945;SDS011;34999;50.940;3.998;2024-02-14T03:52:38;9.03;;;7.83;;
48945;SDS011;34999;50.940;3.998;2024-02-14T03:55:09;14.93;;;8.50;;
48945;SDS011;34999;50.940;3.998;2024-02-14T03:57:40;10.87;;;7.73;;
48945;SDS011;34999;50.940;3.998;2024-02-14T04:00:09;13.17;;;8.50;;
48945;SDS011;34999;50.940;3.998;2024-02-14T04:02:40;10.63;;;8.00;;
48945;SDS011;34999;50.940;3.998;2024-02-14T04:05:08;12.73;;;8.97;;
48945;SDS011;34999;50.940;3.998;2024-02-14T04:07:36;12.90;;;8.60;;
48945;SDS011;34999;50.940;3.998;2024-02-14T04:10:05;13.13;;;8.73;;
48945;SDS011;34999;50.940;3.998;2024-02-14T04:12:36;11.10;;;8.40;;
48945;SDS011;34999;50.940;3.998;2024-02-14T04:15:05;9.00;;;7.67;;
48945;SDS011;34999;50.940;3.998;2024-02-14T04:17:34;11.37;;;8.67;;
48945;SDS011;34999;50.940;3.998;2024-02-14T04:20:05;14.10;;;8.93;;
48945;SDS011;34999;50.940;3.998;2024-02-14T04:22:34;13.70;;;8.63;;
48945;SDS011;34999;50.940;3.998;2024-02-14T04:25:03;11.77;;;8.63;;
48945;SDS011;34999;50.940;3.998;2024-02-14T04:27:31;12.77;;;8.70;;
48945;SDS011;34999;50.940;3.998;2024-02-14T04:30:00;11.47;;;7.90;;
48945;SDS011;34999;50.940;3.998;2024-02-14T04:32:29;12.87;;;8.10;;
48945;SDS011;34999;50.940;3.998;2024-02-14T04:34:58;11.00;;;7.70;;
48945;SDS011;34999;50.940;3.998;2024-02-14T04:37:29;14.27;;;8.10;;
48945;SDS011;34999;50.940;3.998;2024-02-14T04:39:57;13.27;;;8.03;;
48945;SDS011;34999;50.940;3.998;2024-02-14T04:42:26;10.73;;;7.93;;
48945;SDS011;34999;50.940;3.998;2024-02-14T04:44:54;15.67;;;8.33;;
48945;SDS011;34999;50.940;3.998;2024-02-14T04:47:23;12.03;;;7.87;;
48945;SDS011;34999;50.940;3.998;2024-02-14T04:49:51;15.10;;;8.40;;
48945;SDS011;34999;50.940;3.998;2024-02-14T04:52:19;11.70;;;8.97;;
48945;SDS011;34999;50.940;3.998;2024-02-14T04:54:49;8.93;;;7.63;;
48945;SDS011;34999;50.940;3.998;2024-02-14T04:57:17;11.33;;;8.40;;
48945;SDS011;34999;50.940;3.998;2024-02-14T04:59:46;11.57;;;8.70;;
48945;SDS011;34999;50.940;3.998;2024-02-14T05:02:14;11.67;;;8.40;;
48945;SDS011;34999;50.940;3.998;2024-02-14T05:04:43;14.33;;;8.10;;
48945;SDS011;34999;50.940;3.998;2024-02-14T05:07:12;10.50;;;8.17;;
48945;SDS011;34999;50.940;3.998;2024-02-14T05:09:40;16.70;;;8.70;;
48945;SDS011;34999;50.940;3.998;2024-02-14T05:12:09;11.13;;;8.23;;
48945;SDS011;34999;50.940;3.998;2024-02-14T05:14:38;12.10;;;8.27;;
48945;SDS011;34999;50.940;3.998;2024-02-14T05:17:07;11.00;;;7.87;;
48945;SDS011;34999;50.940;3.998;2024-02-14T05:19:35;12.90;;;7.83;;
48945;SDS011;34999;50.940;3.998;2024-02-14T05:22:03;8.87;;;7.80;;
48945;SDS011;34999;50.940;3.998;2024-02-14T05:24:32;14.63;;;8.90;;
48945;SDS011;34999;50.940;3.998;2024-02-14T05:27:04;11.27;;;7.77;;
48945;SDS011;34999;50.940;3.998;2024-02-14T05:29:34;9.00;;;7.07;;
48945;SDS011;34999;50.940;3.998;2024-02-14T05:32:02;16.10;;;8.17;;
48945;SDS011;34999;50.940;3.998;2024-02-14T05:34:31;16.13;;;8.00;;
48945;SDS011;34999;50.940;3.998;2024-02-14T05:37:00;12.13;;;8.03;;
48945;SDS011;34999;50.940;3.998;2024-02-14T05:39:29;15.47;;;8.17;;
48945;SDS011;34999;50.940;3.998;2024-02-14T05:41:57;12.73;;;7.53;;
48945;SDS011;34999;50.940;3.998;2024-02-14T05:44:25;11.70;;;7.63;;
48945;SDS011;34999;50.940;3.998;2024-02-14T05:46:56;10.47;;;8.53;;
48945;SDS011;34999;50.940;3.998;2024-02-14T05:49:24;10.73;;;7.60;;
48945;SDS011;34999;50.940;3.998;2024-02-14T05:51:53;11.17;;;7.33;;
48945;SDS011;34999;50.940;3.998;2024-02-14T05:54:21;8.40;;;6.90;;
48945;SDS011;34999;50.940;3.998;2024-02-14T05:56:49;8.27;;;7.47;;
48945;SDS011;34999;50.940;3.998;2024-02-14T05:59:20;7.87;;;6.90;;
48945;SDS011;34999;50.940;3.998;2024-02-14T06:01:49;11.07;;;7.33;;
48945;SDS011;34999;50.940;3.998;2024-02-14T06:04:19;9.20;;;7.07;;
48945;SDS011;34999;50.940;3.998;2024-02-14T06:06:47;9.90;;;7.50;;
48945;SDS011;34999;50.940;3.998;2024-02-14T06:09:15;8.73;;;6.67;;
48945;SDS011;34999;50.940;3.998;2024-02-14T06:11:44;9.33;;;6.90;;
48945;SDS011;34999;50.940;3.998;2024-02-14T06:14:12;11.50;;;6.70;;
48945;SDS011;34999;50.940;3.998;2024-02-14T06:16:40;17.17;;;7.17;;
48945;SDS011;34999;50.940;3.998;2024-02-14T06:19:08;8.23;;;6.90;;
48945;SDS011;34999;50.940;3.998;2024-02-14T06:21:39;12.43;;;7.47;;
48945;SDS011;34999;50.940;3.998;2024-02-14T06:24:07;9.90;;;7.50;;
48945;SDS011;34999;50.940;3.998;2024-02-14T06:26:36;11.77;;;7.30;;
48945;SDS011;34999;50.940;3.998;2024-02-14T06:29:04;11.00;;;7.20;;
48945;SDS011;34999;50.940;3.998;2024-02-14T06:31:33;10.53;;;7.27;;
48945;SDS011;34999;50.940;3.998;2024-02-14T06:34:01;7.17;;;6.47;;
48945;SDS011;34999;50.940;3.998;2024-02-14T06:36:33;14.90;;;7.30;;
48945;SDS011;34999;50.940;3.998;2024-02-14T06:39:03;12.53;;;7.57;;
48945;SDS011;34999;50.940;3.998;2024-02-14T06:41:34;11.67;;;7.07;;
48945;SDS011;34999;50.940;3.998;2024-02-14T06:44:02;10.10;;;6.90;;
48945;SDS011;34999;50.940;3.998;2024-02-14T06:46:31;11.43;;;6.83;;
48945;SDS011;34999;50.940;3.998;2024-02-14T06:48:59;10.97;;;7.30;;
48945;SDS011;34999;50.940;3.998;2024-02-14T06:51:28;8.73;;;7.47;;
48945;SDS011;34999;50.940;3.998;2024-02-14T06:53:57;13.80;;;7.23;;
48945;SDS011;34999;50.940;3.998;2024-02-14T06:56:26;11.87;;;7.20;;
48945;SDS011;34999;50.940;3.998;2024-02-14T06:58:56;14.10;;;7.93;;
48945;SDS011;34999;50.940;3.998;2024-02-14T07:01:26;16.67;;;7.40;;
48945;SDS011;34999;50.940;3.998;2024-02-14T07:03:55;8.77;;;7.10;;
48945;SDS011;34999;50.940;3.998;2024-02-14T07:06:24;9.23;;;7.07;;
48945;SDS011;34999;50.940;3.998;2024-02-14T07:08:52;11.90;;;7.33;;
48945;SDS011;34999;50.940;3.998;2024-02-14T07:11:20;12.87;;;7.60;;
48945;SDS011;34999;50.940;3.998;2024-02-14T07:13:51;10.87;;;7.60;;
48945;SDS011;34999;50.940;3.998;2024-02-14T07:16:20;10.97;;;7.40;;
48945;SDS011;34999;50.940;3.998;2024-02-14T07:18:49;12.57;;;6.93;;
48945;SDS011;34999;50.940;3.998;2024-02-14T07:21:17;13.27;;;7.17;;
48945;SDS011;34999;50.940;3.998;2024-02-14T07:23:46;8.77;;;6.90;;
48945;SDS011;34999;50.940;3.998;2024-02-14T07:26:14;15.40;;;7.47;;
48945;SDS011;34999;50.940;3.998;2024-02-14T07:28:42;9.17;;;7.23;;
48945;SDS011;34999;50.940;3.998;2024-02-14T07:31:12;10.63;;;6.93;;
48945;SDS011;34999;50.940;3.998;2024-02-14T07:33:40;12.67;;;6.80;;
48945;SDS011;34999;50.940;3.998;2024-02-14T07:36:10;13.43;;;7.70;;
48945;SDS011;34999;50.940;3.998;2024-02-14T07:38:39;17.87;;;7.70;;
48945;SDS011;34999;50.940;3.998;2024-02-14T07:41:09;11.93;;;7.20;;
48945;SDS011;34999;50.940;3.998;2024-02-14T07:43:37;12.50;;;7.53;;
48945;SDS011;34999;50.940;3.998;2024-02-14T07:46:05;9.40;;;7.53;;
48945;SDS011;34999;50.940;3.998;2024-02-14T07:48:35;15.13;;;8.10;;
48945;SDS011;34999;50.940;3.998;2024-02-14T07:51:06;13.90;;;7.87;;
48945;SDS011;34999;50.940;3.998;2024-02-14T07:53:35;11.93;;;8.37;;
48945;SDS011;34999;50.940;3.998;2024-02-14T07:56:03;15.20;;;8.43;;
48945;SDS011;34999;50.940;3.998;2024-02-14T07:58:32;9.93;;;7.63;;
48945;SDS011;34999;50.940;3.998;2024-02-14T08:01:00;12.80;;;7.90;;
48945;SDS011;34999;50.940;3.998;2024-02-14T08:03:30;10.87;;;7.67;;
48945;SDS011;34999;50.940;3.998;2024-02-14T08:06:00;14.50;;;7.73;;
48945;SDS011;34999;50.940;3.998;2024-02-14T08:08:28;10.60;;;7.13;;
48945;SDS011;34999;50.940;3.998;2024-02-14T08:10:57;11.70;;;7.73;;
48945;SDS011;34999;50.940;3.998;2024-02-14T08:13:25;13.07;;;8.13;;
48945;SDS011;34999;50.940;3.998;2024-02-14T08:15:53;16.77;;;8.80;;
48945;SDS011;34999;50.940;3.998;2024-02-14T08:18:25;15.63;;;8.47;;
48945;SDS011;34999;50.940;3.998;2024-02-14T08:20:55;19.07;;;9.23;;
48945;SDS011;34999;50.940;3.998;2024-02-14T08:23:24;12.10;;;8.00;;
48945;SDS011;34999;50.940;3.998;2024-02-14T08:25:52;13.63;;;8.37;;
48945;SDS011;34999;50.940;3.998;2024-02-14T08:28:23;11.30;;;7.93;;
48945;SDS011;34999;50.940;3.998;2024-02-14T08:30:51;11.93;;;8.63;;
48945;SDS011;34999;50.940;3.998;2024-02-14T08:33:20;14.20;;;8.10;;
48945;SDS011;34999;50.940;3.998;2024-02-14T08:35:48;15.43;;;8.10;;
48945;SDS011;34999;50.940;3.998;2024-02-14T08:38:16;17.80;;;8.17;;
48945;SDS011;34999;50.940;3.998;2024-02-14T08:40:46;10.30;;;7.33;;
48945;SDS011;34999;50.940;3.998;2024-02-14T08:43:14;12.47;;;7.43;;
48945;SDS011;34999;50.940;3.998;2024-02-14T08:45:42;14.87;;;8.27;;
48945;SDS011;34999;50.940;3.998;2024-02-14T08:48:10;11.53;;;8.00;;
48945;SDS011;34999;50.940;3.998;2024-02-14T08:50:39;10.13;;;7.90;;
48945;SDS011;34999;50.940;3.998;2024-02-14T08:53:08;12.40;;;8.47;;
48945;SDS011;34999;50.940;3.998;2024-02-14T08:55:38;13.20;;;7.77;;
48945;SDS011;34999;50.940;3.998;2024-02-14T08:58:07;10.43;;;7.30;;
48945;SDS011;34999;50.940;3.998;2024-02-14T09:00:36;11.07;;;7.23;;
48945;SDS011;34999;50.940;3.998;2024-02-14T09:03:05;9.07;;;7.80;;
48945;SDS011;34999;50.940;3.998;2024-02-14T09:05:34;10.63;;;8.67;;
48945;SDS011;34999;50.940;3.998;2024-02-14T09:08:04;11.13;;;7.03;;
48945;SDS011;34999;50.940;3.998;2024-02-14T09:10:32;11.60;;;7.77;;
48945;SDS011;34999;50.940;3.998;2024-02-14T09:13:00;13.83;;;7.77;;
48945;SDS011;34999;50.940;3.998;2024-02-14T09:15:30;12.17;;;7.43;;
48945;SDS011;34999;50.940;3.998;2024-02-14T09:17:59;11.93;;;7.20;;
48945;SDS011;34999;50.940;3.998;2024-02-14T09:20:29;9.70;;;7.00;;
48945;SDS011;34999;50.940;3.998;2024-02-14T09:22:58;9.50;;;6.47;;
48945;SDS011;34999;50.940;3.998;2024-02-14T09:25:26;6.10;;;5.47;;
48945;SDS011;34999;50.940;3.998;2024-02-14T09:27:54;11.30;;;6.67;;
48945;SDS011;34999;50.940;3.998;2024-02-14T09:30:23;13.30;;;6.33;;
48945;SDS011;34999;50.940;3.998;2024-02-14T09:33:05;7.63;;;5.57;;
48945;SDS011;34999;50.940;3.998;2024-02-14T09:35:33;9.10;;;5.87;;
48945;SDS011;34999;50.940;3.998;2024-02-14T09:38:04;6.47;;;5.70;;
48945;SDS011;34999;50.940;3.998;2024-02-14T09:40:32;6.80;;;6.00;;
48945;SDS011;34999;50.940;3.998;2024-02-14T09:43:01;6.73;;;5.87;;
48945;SDS011;34999;50.940;3.998;2024-02-14T09:45:33;6.60;;;5.97;;
48945;SDS011;34999;50.940;3.998;2024-02-14T09:48:01;10.13;;;6.57;;
48945;SDS011;34999;50.940;3.998;2024-02-14T09:50:33;8.63;;;6.60;;
48945;SDS011;34999;50.940;3.998;2024-02-14T09:53:02;6.93;;;6.13;;
48945;SDS011;34999;50.940;3.998;2024-02-14T09:55:34;6.87;;;6.10;;
48945;SDS011;34999;50.940;3.998;2024-02-14T09:58:02;6.73;;;6.00;;
48945;SDS011;34999;50.940;3.998;2024-02-14T10:00:33;7.37;;;6.30;;
48945;SDS011;34999;50.940;3.998;2024-02-14T10:03:03;9.77;;;6.70;;
48945;SDS011;34999;50.940;3.998;2024-02-14T10:05:34;7.03;;;6.40;;
48945;SDS011;34999;50.940;3.998;2024-02-14T10:08:03;6.57;;;5.97;;
48945;SDS011;34999;50.940;3.998;2024-02-14T10:10:32;6.90;;;6.30;;
48945;SDS011;34999;50.940;3.998;2024-02-14T10:13:03;6.33;;;5.83;;
48945;SDS011;34999;50.940;3.998;2024-02-14T10:15:32;6.60;;;5.73;;
48945;SDS011;34999;50.940;3.998;2024-02-14T10:18:01;6.07;;;5.57;;
48945;SDS011;34999;50.940;3.998;2024-02-14T10:20:30;6.10;;;5.60;;
48945;SDS011;34999;50.940;3.998;2024-02-14T10:23:02;7.63;;;6.07;;
48945;SDS011;34999;50.940;3.998;2024-02-14T10:25:34;6.20;;;5.70;;
48945;SDS011;34999;50.940;3.998;2024-02-14T10:28:03;6.83;;;6.00;;
48945;SDS011;34999;50.940;3.998;2024-02-14T10:30:35;6.53;;;5.93;;
48945;SDS011;34999;50.940;3.998;2024-02-14T10:33:07;6.60;;;6.00;;
48945;SDS011;34999;50.940;3.998;2024-02-14T10:35:49;6.70;;;6.17;;
48945;SDS011;34999;50.940;3.998;2024-02-14T10:38:24;6.43;;;5.83;;
48945;SDS011;34999;50.940;3.998;2024-02-14T10:40:53;7.20;;;6.50;;
48945;SDS011;34999;50.940;3.998;2024-02-14T10:43:22;6.77;;;6.07;;
48945;SDS011;34999;50.940;3.998;2024-02-14T10:45:51;7.43;;;6.27;;
48945;SDS011;34999;50.940;3.998;2024-02-14T10:48:21;6.97;;;6.33;;
48945;SDS011;34999;50.940;3.998;2024-02-14T10:50:53;6.70;;;6.03;;
48945;SDS011;34999;50.940;3.998;2024-02-14T10:53:26;7.13;;;6.43;;
48945;SDS011;34999;50.940;3.998;2024-02-14T10:56:01;6.60;;;6.10;;
48945;SDS011;34999;50.940;3.998;2024-02-14T10:58:30;6.67;;;6.13;;
48945;SDS011;34999;50.940;3.998;2024-02-14T11:01:00;6.80;;;6.20;;
48945;SDS011;34999;50.940;3.998;2024-02-14T11:03:29;7.90;;;6.20;;
48945;SDS011;34999;50.940;3.998;2024-02-14T11:06:00;6.40;;;5.80;;
48945;SDS011;34999;50.940;3.998;2024-02-14T11:08:32;7.20;;;6.60;;
48945;SDS011;34999;50.940;3.998;2024-02-14T11:11:02;6.80;;;6.20;;
48945;SDS011;34999;50.940;3.998;2024-02-14T11:13:30;6.77;;;6.17;;
48945;SDS011;34999;50.940;3.998;2024-02-14T11:15:59;9.17;;;6.97;;
48945;SDS011;34999;50.940;3.998;2024-02-14T11:18:28;8.50;;;6.90;;
48945;SDS011;34999;50.940;3.998;2024-02-14T11:20:58;7.60;;;6.83;;
48945;SDS011;34999;50.940;3.998;2024-02-14T11:23:29;7.60;;;7.00;;
48945;SDS011;34999;50.940;3.998;2024-02-14T11:26:00;8.43;;;7.47;;
48945;SDS011;34999;50.940;3.998;2024-02-14T11:28:30;7.67;;;7.03;;
48945;SDS011;34999;50.940;3.998;2024-02-14T11:31:00;9.93;;;7.53;;
48945;SDS011;34999;50.940;3.998;2024-02-14T11:33:30;9.17;;;7.53;;
48945;SDS011;34999;50.940;3.998;2024-02-14T11:36:00;11.43;;;7.70;;
48945;SDS011;34999;50.940;3.998;2024-02-14T11:38:37;9.13;;;7.03;;
48945;SDS011;34999;50.940;3.998;2024-02-14T11:41:09;9.27;;;7.53;;
48945;SDS011;34999;50.940;3.998;2024-02-14T11:43:38;10.37;;;7.13;;
48945;SDS011;34999;50.940;3.998;2024-02-14T11:46:07;9.87;;;7.33;;
48945;SDS011;34999;50.940;3.998;2024-02-14T11:48:36;7.67;;;6.87;;
48945;SDS011;34999;50.940;3.998;2024-02-14T11:51:10;8.33;;;6.87;;
48945;SDS011;34999;50.940;3.998;2024-02-14T11:53:38;7.20;;;6.50;;
48945;SDS011;34999;50.940;3.998;2024-02-14T11:56:08;6.93;;;6.33;;
48945;SDS011;34999;50.940;3.998;2024-02-14T11:58:38;7.37;;;6.10;;
48945;SDS011;34999;50.940;3.998;2024-02-14T12:01:06;9.20;;;6.30;;
48945;SDS011;34999;50.940;3.998;2024-02-14T12:03:36;8.90;;;6.00;;
48945;SDS011;34999;50.940;3.998;2024-02-14T12:06:05;6.60;;;5.87;;
48945;SDS011;34999;50.940;3.998;2024-02-14T12:08:35;6.67;;;5.57;;
48945;SDS011;34999;50.940;3.998;2024-02-14T12:11:04;8.70;;;6.10;;
48945;SDS011;34999;50.940;3.998;2024-02-14T12:13:33;7.07;;;5.10;;
48945;SDS011;34999;50.940;3.998;2024-02-14T12:16:04;8.73;;;5.37;;
48945;SDS011;34999;50.940;3.998;2024-02-14T12:18:35;8.70;;;5.73;;
48945;SDS011;34999;50.940;3.998;2024-02-14T12:21:03;7.73;;;5.80;;
48945;SDS011;34999;50.940;3.998;2024-02-14T12:23:34;10.27;;;6.17;;
48945;SDS011;34999;50.940;3.998;2024-02-14T12:26:03;7.80;;;5.43;;
48945;SDS011;34999;50.940;3.998;2024-02-14T12:28:33;9.13;;;6.00;;
48945;SDS011;34999;50.940;3.998;2024-02-14T12:31:03;7.93;;;5.50;;
48945;SDS011;34999;50.940;3.998;2024-02-14T12:33:32;9.63;;;6.10;;
48945;SDS011;34999;50.940;3.998;2024-02-14T12:36:01;8.47;;;5.90;;
48945;SDS011;34999;50.940;3.998;2024-02-14T12:38:30;7.97;;;5.77;;
48945;SDS011;34999;50.940;3.998;2024-02-14T12:40:59;6.03;;;5.43;;
48945;SDS011;34999;50.940;3.998;2024-02-14T12:43:28;5.80;;;5.23;;
48945;SDS011;34999;50.940;3.998;2024-02-14T12:45:58;10.80;;;5.73;;
48945;SDS011;34999;50.940;3.998;2024-02-14T12:48:26;8.27;;;5.80;;
48945;SDS011;34999;50.940;3.998;2024-02-14T12:50:56;8.00;;;5.63;;
48945;SDS011;34999;50.940;3.998;2024-02-14T12:53:25;6.23;;;5.50;;
48945;SDS011;34999;50.940;3.998;2024-02-14T12:55:53;9.83;;;6.50;;
48945;SDS011;34999;50.940;3.998;2024-02-14T12:58:22;7.87;;;5.70;;
48945;SDS011;34999;50.940;3.998;2024-02-14T13:00:50;6.30;;;5.70;;
48945;SDS011;34999;50.940;3.998;2024-02-14T13:03:20;12.47;;;6.20;;
48945;SDS011;34999;50.940;3.998;2024-02-14T13:05:49;7.43;;;6.43;;
48945;SDS011;34999;50.940;3.998;2024-02-14T13:08:20;7.00;;;5.77;;
48945;SDS011;34999;50.940;3.998;2024-02-14T13:10:50;10.30;;;7.00;;
48945;SDS011;34999;50.940;3.998;2024-02-14T13:13:19;13.63;;;9.60;;
48945;SDS011;34999;50.940;3.998;2024-02-14T13:15:48;6.73;;;6.03;;
48945;SDS011;34999;50.940;3.998;2024-02-14T13:18:16;8.30;;;5.70;;
48945;SDS011;34999;50.940;3.998;2024-02-14T13:20:47;9.67;;;5.60;;
48945;SDS011;34999;50.940;3.998;2024-02-14T13:23:23;7.67;;;5.30;;
48945;SDS011;34999;50.940;3.998;2024-02-14T13:25:51;8.67;;;5.33;;
48945;SDS011;34999;50.940;3.998;2024-02-14T13:28:19;5.73;;;5.23;;
48945;SDS011;34999;50.940;3.998;2024-02-14T13:30:47;6.63;;;5.53;;
48945;SDS011;34999;50.940;3.998;2024-02-14T13:33:18;7.47;;;5.07;;
48945;SDS011;34999;50.940;3.998;2024-02-14T13:35:48;10.57;;;4.90;;
48945;SDS011;34999;50.940;3.998;2024-02-14T13:38:17;8.07;;;5.60;;
48945;SDS011;34999;50.940;3.998;2024-02-14T13:40:45;6.33;;;5.77;;
48945;SDS011;34999;50.940;3.998;2024-02-14T13:43:13;9.07;;;5.53;;
48945;SDS011;34999;50.940;3.998;2024-02-14T13:45:44;10.07;;;5.83;;
48945;SDS011;34999;50.940;3.998;2024-02-14T13:48:14;6.90;;;5.80;;
48945;SDS011;34999;50.940;3.998;2024-02-14T13:50:42;9.00;;;5.70;;
48945;SDS011;34999;50.940;3.998;2024-02-14T13:53:12;9.47;;;5.63;;
48945;SDS011;34999;50.940;3.998;2024-02-14T13:55:40;6.57;;;5.80;;
48945;SDS011;34999;50.940;3.998;2024-02-14T13:58:09;7.57;;;5.83;;
48945;SDS011;34999;50.940;3.998;2024-02-14T14:00:41;9.43;;;5.57;;
48945;SDS011;34999;50.940;3.998;2024-02-14T14:03:10;6.67;;;5.37;;
48945;SDS011;34999;50.940;3.998;2024-02-14T14:05:39;8.50;;;5.70;;
48945;SDS011;34999;50.940;3.998;2024-02-14T14:08:07;6.47;;;5.23;;
48945;SDS011;34999;50.940;3.998;2024-02-14T14:10:37;7.80;;;5.70;;
48945;SDS011;34999;50.940;3.998;2024-02-14T14:13:05;6.10;;;5.30;;
48945;SDS011;34999;50.940;3.998;2024-02-14T14:15:34;5.83;;;4.73;;
48945;SDS011;34999;50.940;3.998;2024-02-14T14:18:03;5.30;;;4.60;;
48945;SDS011;34999;50.940;3.998;2024-02-14T14:20:31;10.97;;;4.93;;
48945;SDS011;34999;50.940;3.998;2024-02-14T14:23:00;6.60;;;5.23;;
48945;SDS011;34999;50.940;3.998;2024-02-14T14:25:30;6.50;;;5.00;;
48945;SDS011;34999;50.940;3.998;2024-02-14T14:28:00;8.93;;;5.47;;
48945;SDS011;34999;50.940;3.998;2024-02-14T14:30:32;6.13;;;5.63;;
48945;SDS011;34999;50.940;3.998;2024-02-14T14:33:01;8.10;;;5.03;;
48945;SDS011;34999;50.940;3.998;2024-02-14T14:35:30;6.13;;;5.50;;
48945;SDS011;34999;50.940;3.998;2024-02-14T14:38:00;7.13;;;5.80;;
48945;SDS011;34999;50.940;3.998;2024-02-14T14:40:29;9.73;;;5.90;;
48945;SDS011;34999;50.940;3.998;2024-02-14T14:42:57;7.13;;;5.70;;
48945;SDS011;34999;50.940;3.998;2024-02-14T14:45:27;7.40;;;6.00;;
48945;SDS011;34999;50.940;3.998;2024-02-14T14:47:57;7.63;;;5.53;;
48945;SDS011;34999;50.940;3.998;2024-02-14T14:50:25;10.27;;;5.30;;
48945;SDS011;34999;50.940;3.998;2024-02-14T14:52:54;9.23;;;5.70;;